sensor_id;sensor_type;location;lat;lon;timestamp;P1;durP1;ratioP1;P2;durP2;ratioP2
9563;SDS011;4820;50.870;4.702;2023-06-26T00:01:19;6.95;;;5.20;;
9563;SDS011;4820;50.870;4.702;2023-06-26T00:03:46;5.90;;;5.05;;
9563;SDS011;4820;50.870;4.702;2023-06-26T00:06:12;6.13;;;5.10;;
9563;SDS011;4820;50.870;4.702;2023-06-26T00:08:38;6.28;;;5.00;;
9563;SDS011;4820;50.870;4.702;2023-06-26T00:11:04;6.75;;;4.80;;
9563;SDS011;4820;50.870;4.702;2023-06-26T00:13:48;6.30;;;4.50;;
9563;SDS011;4820;50.870;4.702;2023-06-26T00:16:13;7.13;;;4.82;;
9563;SDS011;4820;50.870;4.702;2023-06-26T00:18:39;5.40;;;4.90;;
9563;SDS011;4820;50.870;4.702;2023-06-26T00:21:05;5.78;;;4.95;;
9563;SDS011;4820;50.870;4.702;2023-06-26T00:23:32;7.72;;;5.32;;
9563;SDS011;4820;50.870;4.702;2023-06-26T00:26:02;5.68;;;4.70;;
9563;SDS011;4820;50.870;4.702;2023-06-26T00:28:30;5.07;;;4.50;;
9563;SDS011;4820;50.870;4.702;2023-06-26T00:30:56;6.65;;;4.93;;
9563;SDS011;4820;50.870;4.702;2023-06-26T00:33:21;5.55;;;4.82;;
9563;SDS011;4820;50.870;4.702;2023-06-26T00:35:47;5.53;;;4.60;;
9563;SDS011;4820;50.870;4.702;2023-06-26T00:38:13;6.55;;;5.20;;
9563;SDS011;4820;50.870;4.702;2023-06-26T00:40:38;6.03;;;4.82;;
9563;SDS011;4820;50.870;4.702;2023-06-26T00:43:04;5.93;;;4.53;;
9563;SDS011;4820;50.870;4.702;2023-06-26T00:45:30;5.45;;;4.82;;
9563;SDS011;4820;50.870;4.702;2023-06-26T00:47:55;6.65;;;5.05;;
9563;SDS011;4820;50.870;4.702;2023-06-26T00:50:21;6.68;;;5.40;;
9563;SDS011;4820;50.870;4.702;2023-06-26T00:52:47;6.18;;;5.13;;
9563;SDS011;4820;50.870;4.702;2023-06-26T00:55:13;5.40;;;4.93;;
9563;SDS011;4820;50.870;4.702;2023-06-26T00:57:39;7.88;;;4.88;;
9563;SDS011;4820;50.870;4.702;2023-06-26T01:00:05;5.10;;;4.60;;
9563;SDS011;4820;50.870;4.702;2023-06-26T01:02:31;6.53;;;4.68;;
9563;SDS011;4820;50.870;4.702;2023-06-26T01:05:01;5.85;;;4.65;;
9563;SDS011;4820;50.870;4.702;2023-06-26T01:07:31;5.35;;;4.85;;
9563;SDS011;4820;50.870;4.702;2023-06-26T01:10:04;4.97;;;4.40;;
9563;SDS011;4820;50.870;4.702;2023-06-26T01:12:33;5.72;;;4.57;;
9563;SDS011;4820;50.870;4.702;2023-06-26T01:14:59;6.38;;;4.53;;
9563;SDS011;4820;50.870;4.702;2023-06-26T01:17:28;5.93;;;4.38;;
9563;SDS011;4820;50.870;4.702;2023-06-26T01:20:00;4.47;;;4.07;;
9563;SDS011;4820;50.870;4.702;2023-06-26T01:22:42;6.65;;;4.10;;
9563;SDS011;4820;50.870;4.702;2023-06-26T01:28:09;4.63;;;4.03;;
9563;SDS011;4820;50.870;4.702;2023-06-26T01:30:39;5.30;;;4.43;;
9563;SDS011;4820;50.870;4.702;2023-06-26T01:33:07;5.45;;;4.30;;
9563;SDS011;4820;50.870;4.702;2023-06-26T01:35:34;7.78;;;4.28;;
9563;SDS011;4820;50.870;4.702;2023-06-26T01:40:40;5.18;;;3.90;;
9563;SDS011;4820;50.870;4.702;2023-06-26T01:43:06;7.25;;;3.97;;
9563;SDS011;4820;50.870;4.702;2023-06-26T01:45:40;6.10;;;4.07;;
9563;SDS011;4820;50.870;4.702;2023-06-26T01:48:07;4.82;;;4.13;;
9563;SDS011;4820;50.870;4.702;2023-06-26T01:50:36;5.47;;;3.72;;
9563;SDS011;4820;50.870;4.702;2023-06-26T01:53:13;4.38;;;3.90;;
9563;SDS011;4820;50.870;4.702;2023-06-26T01:55:47;5.30;;;4.10;;
9563;SDS011;4820;50.870;4.702;2023-06-26T01:58:13;5.05;;;3.97;;
9563;SDS011;4820;50.870;4.702;2023-06-26T02:00:41;4.30;;;3.30;;
9563;SDS011;4820;50.870;4.702;2023-06-26T02:03:08;4.82;;;3.75;;
9563;SDS011;4820;50.870;4.702;2023-06-26T02:05:34;5.32;;;3.80;;
9563;SDS011;4820;50.870;4.702;2023-06-26T02:08:03;5.10;;;3.70;;
9563;SDS011;4820;50.870;4.702;2023-06-26T02:10:30;5.45;;;4.20;;
9563;SDS011;4820;50.870;4.702;2023-06-26T02:12:56;6.00;;;3.70;;
9563;SDS011;4820;50.870;4.702;2023-06-26T02:15:22;5.93;;;4.07;;
9563;SDS011;4820;50.870;4.702;2023-06-26T02:17:47;4.93;;;3.42;;
9563;SDS011;4820;50.870;4.702;2023-06-26T02:20:16;6.43;;;3.60;;
9563;SDS011;4820;50.870;4.702;2023-06-26T02:22:42;5.00;;;3.83;;
9563;SDS011;4820;50.870;4.702;2023-06-26T02:25:11;5.78;;;3.80;;
9563;SDS011;4820;50.870;4.702;2023-06-26T02:27:37;6.10;;;3.70;;
9563;SDS011;4820;50.870;4.702;2023-06-26T02:30:04;6.32;;;3.60;;
9563;SDS011;4820;50.870;4.702;2023-06-26T02:32:30;4.43;;;3.60;;
9563;SDS011;4820;50.870;4.702;2023-06-26T02:34:56;5.10;;;4.13;;
9563;SDS011;4820;50.870;4.702;2023-06-26T02:37:21;5.15;;;3.65;;
9563;SDS011;4820;50.870;4.702;2023-06-26T02:39:47;5.90;;;3.35;;
9563;SDS011;4820;50.870;4.702;2023-06-26T02:42:13;4.05;;;3.67;;
9563;SDS011;4820;50.870;4.702;2023-06-26T02:44:39;5.68;;;3.30;;
9563;SDS011;4820;50.870;4.702;2023-06-26T02:47:04;6.20;;;3.90;;
9563;SDS011;4820;50.870;4.702;2023-06-26T02:49:30;4.32;;;3.47;;
9563;SDS011;4820;50.870;4.702;2023-06-26T02:51:57;7.13;;;4.43;;
9563;SDS011;4820;50.870;4.702;2023-06-26T02:54:24;4.80;;;3.72;;
9563;SDS011;4820;50.870;4.702;2023-06-26T02:56:50;5.38;;;3.65;;
9563;SDS011;4820;50.870;4.702;2023-06-26T02:59:17;6.13;;;3.65;;
9563;SDS011;4820;50.870;4.702;2023-06-26T03:01:42;5.22;;;3.75;;
9563;SDS011;4820;50.870;4.702;2023-06-26T03:04:08;6.15;;;3.72;;
9563;SDS011;4820;50.870;4.702;2023-06-26T03:06:35;7.80;;;4.18;;
9563;SDS011;4820;50.870;4.702;2023-06-26T03:09:01;6.70;;;3.95;;
9563;SDS011;4820;50.870;4.702;2023-06-26T03:11:27;5.60;;;4.00;;
9563;SDS011;4820;50.870;4.702;2023-06-26T03:13:53;6.30;;;4.03;;
9563;SDS011;4820;50.870;4.702;2023-06-26T03:16:19;7.05;;;3.97;;
9563;SDS011;4820;50.870;4.702;2023-06-26T03:18:45;6.97;;;3.92;;
9563;SDS011;4820;50.870;4.702;2023-06-26T03:21:11;8.10;;;4.35;;
9563;SDS011;4820;50.870;4.702;2023-06-26T03:23:36;7.60;;;3.90;;
9563;SDS011;4820;50.870;4.702;2023-06-26T03:26:02;6.82;;;4.38;;
9563;SDS011;4820;50.870;4.702;2023-06-26T03:28:28;6.13;;;4.13;;
9563;SDS011;4820;50.870;4.702;2023-06-26T03:30:53;7.60;;;4.20;;
9563;SDS011;4820;50.870;4.702;2023-06-26T03:33:19;8.15;;;4.60;;
9563;SDS011;4820;50.870;4.702;2023-06-26T03:35:45;6.78;;;4.13;;
9563;SDS011;4820;50.870;4.702;2023-06-26T03:38:14;6.32;;;4.20;;
9563;SDS011;4820;50.870;4.702;2023-06-26T03:40:39;8.23;;;4.60;;
9563;SDS011;4820;50.870;4.702;2023-06-26T03:43:05;10.10;;;4.30;;
9563;SDS011;4820;50.870;4.702;2023-06-26T03:45:31;7.22;;;4.22;;
9563;SDS011;4820;50.870;4.702;2023-06-26T03:47:58;7.00;;;4.63;;
9563;SDS011;4820;50.870;4.702;2023-06-26T03:50:24;6.13;;;3.85;;
9563;SDS011;4820;50.870;4.702;2023-06-26T03:52:49;7.43;;;4.57;;
9563;SDS011;4820;50.870;4.702;2023-06-26T03:55:17;8.82;;;4.57;;
9563;SDS011;4820;50.870;4.702;2023-06-26T03:57:43;8.30;;;4.82;;
9563;SDS011;4820;50.870;4.702;2023-06-26T04:00:09;7.35;;;4.72;;
9563;SDS011;4820;50.870;4.702;2023-06-26T04:02:37;8.07;;;4.30;;
9563;SDS011;4820;50.870;4.702;2023-06-26T04:05:04;8.40;;;4.35;;
9563;SDS011;4820;50.870;4.702;2023-06-26T04:07:30;8.00;;;4.40;;
9563;SDS011;4820;50.870;4.702;2023-06-26T04:09:56;9.75;;;4.85;;
9563;SDS011;4820;50.870;4.702;2023-06-26T04:12:22;8.18;;;4.22;;
9563;SDS011;4820;50.870;4.702;2023-06-26T04:14:48;8.35;;;4.45;;
9563;SDS011;4820;50.870;4.702;2023-06-26T04:17:13;6.65;;;4.13;;
9563;SDS011;4820;50.870;4.702;2023-06-26T04:19:39;7.28;;;4.05;;
9563;SDS011;4820;50.870;4.702;2023-06-26T04:24:34;10.80;;;4.35;;
9563;SDS011;4820;50.870;4.702;2023-06-26T04:26:59;8.65;;;4.53;;
9563;SDS011;4820;50.870;4.702;2023-06-26T04:29:28;8.90;;;4.25;;
9563;SDS011;4820;50.870;4.702;2023-06-26T04:31:54;10.48;;;4.13;;
9563;SDS011;4820;50.870;4.702;2023-06-26T04:34:29;9.38;;;4.28;;
9563;SDS011;4820;50.870;4.702;2023-06-26T04:36:57;11.10;;;4.13;;
9563;SDS011;4820;50.870;4.702;2023-06-26T04:39:23;9.48;;;4.68;;
9563;SDS011;4820;50.870;4.702;2023-06-26T04:41:49;12.05;;;4.47;;
9563;SDS011;4820;50.870;4.702;2023-06-26T04:44:14;9.27;;;4.53;;
9563;SDS011;4820;50.870;4.702;2023-06-26T04:46:41;9.23;;;4.25;;
9563;SDS011;4820;50.870;4.702;2023-06-26T04:49:08;13.43;;;4.78;;
9563;SDS011;4820;50.870;4.702;2023-06-26T04:51:33;7.60;;;4.28;;
9563;SDS011;4820;50.870;4.702;2023-06-26T04:54:10;10.27;;;4.32;;
9563;SDS011;4820;50.870;4.702;2023-06-26T04:56:44;8.43;;;4.22;;
9563;SDS011;4820;50.870;4.702;2023-06-26T04:59:12;9.82;;;4.07;;
9563;SDS011;4820;50.870;4.702;2023-06-26T05:01:39;9.07;;;4.20;;
9563;SDS011;4820;50.870;4.702;2023-06-26T05:04:05;13.10;;;4.68;;
9563;SDS011;4820;50.870;4.702;2023-06-26T05:06:32;10.48;;;4.35;;
9563;SDS011;4820;50.870;4.702;2023-06-26T05:08:58;8.57;;;3.95;;
9563;SDS011;4820;50.870;4.702;2023-06-26T05:11:24;13.88;;;4.47;;
9563;SDS011;4820;50.870;4.702;2023-06-26T05:13:50;10.98;;;3.85;;
9563;SDS011;4820;50.870;4.702;2023-06-26T05:16:16;9.13;;;3.83;;
9563;SDS011;4820;50.870;4.702;2023-06-26T05:18:41;10.73;;;4.22;;
9563;SDS011;4820;50.870;4.702;2023-06-26T05:21:07;8.48;;;4.13;;
9563;SDS011;4820;50.870;4.702;2023-06-26T05:23:33;8.35;;;4.22;;
9563;SDS011;4820;50.870;4.702;2023-06-26T05:26:00;8.75;;;3.90;;
9563;SDS011;4820;50.870;4.702;2023-06-26T05:28:27;8.73;;;4.00;;
9563;SDS011;4820;50.870;4.702;2023-06-26T05:30:53;11.40;;;4.07;;
9563;SDS011;4820;50.870;4.702;2023-06-26T05:33:21;14.07;;;4.50;;
9563;SDS011;4820;50.870;4.702;2023-06-26T05:35:48;8.45;;;3.50;;
9563;SDS011;4820;50.870;4.702;2023-06-26T05:38:16;16.80;;;4.00;;
9563;SDS011;4820;50.870;4.702;2023-06-26T05:40:42;10.25;;;3.95;;
9563;SDS011;4820;50.870;4.702;2023-06-26T05:43:09;11.35;;;3.95;;
9563;SDS011;4820;50.870;4.702;2023-06-26T05:45:35;9.95;;;3.75;;
9563;SDS011;4820;50.870;4.702;2023-06-26T05:48:01;11.40;;;4.10;;
9563;SDS011;4820;50.870;4.702;2023-06-26T05:50:27;10.65;;;3.80;;
9563;SDS011;4820;50.870;4.702;2023-06-26T05:52:53;7.45;;;3.50;;
9563;SDS011;4820;50.870;4.702;2023-06-26T05:55:19;9.35;;;3.70;;
9563;SDS011;4820;50.870;4.702;2023-06-26T05:57:47;8.90;;;3.90;;
9563;SDS011;4820;50.870;4.702;2023-06-26T06:00:13;8.70;;;3.47;;
9563;SDS011;4820;50.870;4.702;2023-06-26T06:02:40;8.93;;;3.80;;
9563;SDS011;4820;50.870;4.702;2023-06-26T06:05:07;9.02;;;3.22;;
9563;SDS011;4820;50.870;4.702;2023-06-26T06:07:33;10.80;;;3.53;;
9563;SDS011;4820;50.870;4.702;2023-06-26T06:10:00;11.82;;;3.88;;
9563;SDS011;4820;50.870;4.702;2023-06-26T06:12:26;9.52;;;3.85;;
9563;SDS011;4820;50.870;4.702;2023-06-26T06:14:53;9.95;;;3.22;;
9563;SDS011;4820;50.870;4.702;2023-06-26T06:17:20;8.73;;;3.80;;
9563;SDS011;4820;50.870;4.702;2023-06-26T06:19:46;10.25;;;3.20;;
9563;SDS011;4820;50.870;4.702;2023-06-26T06:22:12;8.52;;;3.47;;
9563;SDS011;4820;50.870;4.702;2023-06-26T06:24:38;11.80;;;4.00;;
9563;SDS011;4820;50.870;4.702;2023-06-26T06:27:04;7.10;;;3.10;;
9563;SDS011;4820;50.870;4.702;2023-06-26T06:29:30;6.25;;;2.88;;
9563;SDS011;4820;50.870;4.702;2023-06-26T06:31:56;6.90;;;3.30;;
9563;SDS011;4820;50.870;4.702;2023-06-26T06:34:21;10.02;;;3.42;;
9563;SDS011;4820;50.870;4.702;2023-06-26T06:36:47;7.78;;;2.95;;
9563;SDS011;4820;50.870;4.702;2023-06-26T06:39:12;7.22;;;2.95;;
9563;SDS011;4820;50.870;4.702;2023-06-26T06:41:39;7.93;;;2.90;;
9563;SDS011;4820;50.870;4.702;2023-06-26T06:44:04;8.38;;;3.30;;
9563;SDS011;4820;50.870;4.702;2023-06-26T06:46:30;8.90;;;3.20;;
9563;SDS011;4820;50.870;4.702;2023-06-26T06:48:56;7.30;;;2.78;;
9563;SDS011;4820;50.870;4.702;2023-06-26T06:51:22;8.57;;;3.05;;
9563;SDS011;4820;50.870;4.702;2023-06-26T06:53:47;7.03;;;3.05;;
9563;SDS011;4820;50.870;4.702;2023-06-26T06:56:14;9.48;;;2.92;;
9563;SDS011;4820;50.870;4.702;2023-06-26T06:58:40;6.25;;;3.17;;
9563;SDS011;4820;50.870;4.702;2023-06-26T07:01:07;11.18;;;3.17;;
9563;SDS011;4820;50.870;4.702;2023-06-26T07:03:36;8.13;;;3.42;;
9563;SDS011;4820;50.870;4.702;2023-06-26T07:06:02;6.68;;;2.80;;
9563;SDS011;4820;50.870;4.702;2023-06-26T07:08:29;5.60;;;2.40;;
9563;SDS011;4820;50.870;4.702;2023-06-26T07:10:55;6.93;;;3.15;;
9563;SDS011;4820;50.870;4.702;2023-06-26T07:13:24;9.43;;;3.22;;
9563;SDS011;4820;50.870;4.702;2023-06-26T07:15:49;7.25;;;2.78;;
9563;SDS011;4820;50.870;4.702;2023-06-26T07:18:15;7.43;;;3.28;;
9563;SDS011;4820;50.870;4.702;2023-06-26T07:20:41;6.43;;;2.83;;
9563;SDS011;4820;50.870;4.702;2023-06-26T07:23:07;5.65;;;2.25;;
9563;SDS011;4820;50.870;4.702;2023-06-26T07:25:33;7.75;;;2.90;;
9563;SDS011;4820;50.870;4.702;2023-06-26T07:27:58;4.78;;;2.42;;
9563;SDS011;4820;50.870;4.702;2023-06-26T07:30:24;6.93;;;2.40;;
9563;SDS011;4820;50.870;4.702;2023-06-26T07:32:50;7.30;;;2.67;;
9563;SDS011;4820;50.870;4.702;2023-06-26T07:35:16;6.68;;;2.53;;
9563;SDS011;4820;50.870;4.702;2023-06-26T07:37:42;8.02;;;2.65;;
9563;SDS011;4820;50.870;4.702;2023-06-26T07:40:09;6.72;;;2.65;;
9563;SDS011;4820;50.870;4.702;2023-06-26T07:42:35;6.55;;;2.80;;
9563;SDS011;4820;50.870;4.702;2023-06-26T07:45:03;5.13;;;2.33;;
9563;SDS011;4820;50.870;4.702;2023-06-26T07:47:36;6.95;;;2.47;;
9563;SDS011;4820;50.870;4.702;2023-06-26T07:50:02;8.52;;;2.63;;
9563;SDS011;4820;50.870;4.702;2023-06-26T07:52:28;8.63;;;2.60;;
9563;SDS011;4820;50.870;4.702;2023-06-26T07:54:55;6.22;;;2.58;;
9563;SDS011;4820;50.870;4.702;2023-06-26T07:57:21;5.55;;;2.75;;
9563;SDS011;4820;50.870;4.702;2023-06-26T07:59:47;6.95;;;2.65;;
9563;SDS011;4820;50.870;4.702;2023-06-26T08:02:12;7.72;;;2.55;;
9563;SDS011;4820;50.870;4.702;2023-06-26T08:04:38;6.43;;;2.25;;
9563;SDS011;4820;50.870;4.702;2023-06-26T08:07:05;4.97;;;2.53;;
9563;SDS011;4820;50.870;4.702;2023-06-26T08:09:32;6.10;;;2.65;;
9563;SDS011;4820;50.870;4.702;2023-06-26T08:11:58;7.47;;;2.53;;
9563;SDS011;4820;50.870;4.702;2023-06-26T08:14:26;4.47;;;2.30;;
9563;SDS011;4820;50.870;4.702;2023-06-26T08:16:51;5.55;;;2.45;;
9563;SDS011;4820;50.870;4.702;2023-06-26T08:19:18;6.53;;;2.38;;
9563;SDS011;4820;50.870;4.702;2023-06-26T08:21:44;5.40;;;2.28;;
9563;SDS011;4820;50.870;4.702;2023-06-26T08:24:11;6.05;;;2.30;;
9563;SDS011;4820;50.870;4.702;2023-06-26T08:26:47;5.25;;;1.92;;
9563;SDS011;4820;50.870;4.702;2023-06-26T08:29:13;6.13;;;2.28;;
9563;SDS011;4820;50.870;4.702;2023-06-26T08:31:40;5.70;;;2.58;;
9563;SDS011;4820;50.870;4.702;2023-06-26T08:34:07;7.65;;;2.20;;
9563;SDS011;4820;50.870;4.702;2023-06-26T08:36:33;4.82;;;2.40;;
9563;SDS011;4820;50.870;4.702;2023-06-26T08:38:58;7.18;;;2.10;;
9563;SDS011;4820;50.870;4.702;2023-06-26T08:41:24;5.10;;;2.40;;
9563;SDS011;4820;50.870;4.702;2023-06-26T08:43:50;5.53;;;2.35;;
9563;SDS011;4820;50.870;4.702;2023-06-26T08:46:19;5.47;;;2.10;;
9563;SDS011;4820;50.870;4.702;2023-06-26T08:48:53;5.78;;;2.38;;
9563;SDS011;4820;50.870;4.702;2023-06-26T08:51:21;4.43;;;2.00;;
9563;SDS011;4820;50.870;4.702;2023-06-26T08:53:53;5.45;;;2.35;;
9563;SDS011;4820;50.870;4.702;2023-06-26T08:56:24;5.57;;;2.05;;
9563;SDS011;4820;50.870;4.702;2023-06-26T08:58:57;5.63;;;2.10;;
9563;SDS011;4820;50.870;4.702;2023-06-26T09:01:23;8.48;;;2.38;;
9563;SDS011;4820;50.870;4.702;2023-06-26T09:03:50;7.43;;;2.42;;
9563;SDS011;4820;50.870;4.702;2023-06-26T09:06:16;4.75;;;2.10;;
9563;SDS011;4820;50.870;4.702;2023-06-26T09:08:43;5.75;;;2.20;;
9563;SDS011;4820;50.870;4.702;2023-06-26T09:11:09;3.90;;;1.85;;
9563;SDS011;4820;50.870;4.702;2023-06-26T09:13:35;6.40;;;2.17;;
9563;SDS011;4820;50.870;4.702;2023-06-26T09:16:04;5.72;;;2.35;;
9563;SDS011;4820;50.870;4.702;2023-06-26T09:18:33;4.65;;;1.88;;
9563;SDS011;4820;50.870;4.702;2023-06-26T09:20:58;4.90;;;1.92;;
9563;SDS011;4820;50.870;4.702;2023-06-26T09:23:24;6.10;;;1.95;;
9563;SDS011;4820;50.870;4.702;2023-06-26T09:25:51;4.25;;;1.88;;
9563;SDS011;4820;50.870;4.702;2023-06-26T09:28:17;6.50;;;1.85;;
9563;SDS011;4820;50.870;4.702;2023-06-26T09:30:44;6.80;;;2.15;;
9563;SDS011;4820;50.870;4.702;2023-06-26T09:35:40;3.53;;;1.90;;
9563;SDS011;4820;50.870;4.702;2023-06-26T09:38:06;4.10;;;1.80;;
9563;SDS011;4820;50.870;4.702;2023-06-26T09:40:32;4.65;;;1.95;;
9563;SDS011;4820;50.870;4.702;2023-06-26T09:43:04;3.47;;;1.90;;
9563;SDS011;4820;50.870;4.702;2023-06-26T09:45:32;5.65;;;2.30;;
9563;SDS011;4820;50.870;4.702;2023-06-26T09:48:01;4.38;;;2.13;;
9563;SDS011;4820;50.870;4.702;2023-06-26T09:50:32;4.40;;;1.83;;
9563;SDS011;4820;50.870;4.702;2023-06-26T09:53:09;3.90;;;2.17;;
9563;SDS011;4820;50.870;4.702;2023-06-26T09:55:38;4.82;;;2.28;;
9563;SDS011;4820;50.870;4.702;2023-06-26T09:58:06;3.00;;;1.90;;
9563;SDS011;4820;50.870;4.702;2023-06-26T10:00:35;8.07;;;2.30;;
9563;SDS011;4820;50.870;4.702;2023-06-26T10:03:00;3.83;;;1.95;;
9563;SDS011;4820;50.870;4.702;2023-06-26T10:05:27;3.25;;;1.70;;
9563;SDS011;4820;50.870;4.702;2023-06-26T10:07:53;2.97;;;1.90;;
9563;SDS011;4820;50.870;4.702;2023-06-26T10:10:22;4.00;;;1.85;;
9563;SDS011;4820;50.870;4.702;2023-06-26T10:12:49;5.97;;;2.00;;
9563;SDS011;4820;50.870;4.702;2023-06-26T10:15:16;7.18;;;1.92;;
9563;SDS011;4820;50.870;4.702;2023-06-26T10:17:44;7.13;;;2.10;;
9563;SDS011;4820;50.870;4.702;2023-06-26T10:20:12;5.05;;;1.83;;
9563;SDS011;4820;50.870;4.702;2023-06-26T10:22:41;5.53;;;2.08;;
9563;SDS011;4820;50.870;4.702;2023-06-26T10:25:09;3.55;;;1.90;;
9563;SDS011;4820;50.870;4.702;2023-06-26T10:27:38;4.18;;;2.38;;
9563;SDS011;4820;50.870;4.702;2023-06-26T10:30:12;5.15;;;2.30;;
9563;SDS011;4820;50.870;4.702;2023-06-26T10:32:42;5.63;;;2.00;;
9563;SDS011;4820;50.870;4.702;2023-06-26T10:35:10;3.72;;;1.60;;
9563;SDS011;4820;50.870;4.702;2023-06-26T10:37:49;3.42;;;2.03;;
9563;SDS011;4820;50.870;4.702;2023-06-26T10:40:23;4.95;;;2.10;;
9563;SDS011;4820;50.870;4.702;2023-06-26T10:42:51;3.83;;;1.90;;
9563;SDS011;4820;50.870;4.702;2023-06-26T10:45:33;5.20;;;1.70;;
9563;SDS011;4820;50.870;4.702;2023-06-26T10:48:02;2.85;;;1.90;;
9563;SDS011;4820;50.870;4.702;2023-06-26T10:50:32;6.00;;;1.90;;
9563;SDS011;4820;50.870;4.702;2023-06-26T10:55:57;3.00;;;1.80;;
9563;SDS011;4820;50.870;4.702;2023-06-26T11:01:13;3.75;;;2.10;;
9563;SDS011;4820;50.870;4.702;2023-06-26T11:03:45;3.88;;;2.00;;
9563;SDS011;4820;50.870;4.702;2023-06-26T11:06:39;5.10;;;2.03;;
9563;SDS011;4820;50.870;4.702;2023-06-26T11:14:30;5.32;;;2.00;;
9563;SDS011;4820;50.870;4.702;2023-06-26T11:16:57;4.93;;;2.10;;
9563;SDS011;4820;50.870;4.702;2023-06-26T11:19:23;4.82;;;1.80;;
9563;SDS011;4820;50.870;4.702;2023-06-26T11:21:58;4.05;;;2.00;;
9563;SDS011;4820;50.870;4.702;2023-06-26T11:24:26;5.35;;;2.00;;
9563;SDS011;4820;50.870;4.702;2023-06-26T11:26:53;5.60;;;2.35;;
9563;SDS011;4820;50.870;4.702;2023-06-26T11:29:26;6.72;;;2.00;;
9563;SDS011;4820;50.870;4.702;2023-06-26T11:31:55;5.15;;;2.10;;
9563;SDS011;4820;50.870;4.702;2023-06-26T11:34:28;3.30;;;2.00;;
9563;SDS011;4820;50.870;4.702;2023-06-26T11:36:56;3.53;;;1.92;;
9563;SDS011;4820;50.870;4.702;2023-06-26T11:39:22;3.13;;;1.88;;
9563;SDS011;4820;50.870;4.702;2023-06-26T11:41:52;3.40;;;1.90;;
9563;SDS011;4820;50.870;4.702;2023-06-26T11:44:17;3.92;;;2.10;;
9563;SDS011;4820;50.870;4.702;2023-06-26T11:46:45;3.85;;;1.83;;
9563;SDS011;4820;50.870;4.702;2023-06-26T11:49:15;5.45;;;1.98;;
9563;SDS011;4820;50.870;4.702;2023-06-26T11:51:41;3.15;;;1.85;;
9563;SDS011;4820;50.870;4.702;2023-06-26T11:54:08;4.03;;;1.95;;
9563;SDS011;4820;50.870;4.702;2023-06-26T11:56:34;3.55;;;2.30;;
9563;SDS011;4820;50.870;4.702;2023-06-26T11:59:06;3.75;;;1.90;;
9563;SDS011;4820;50.870;4.702;2023-06-26T12:04:12;3.92;;;1.90;;
9563;SDS011;4820;50.870;4.702;2023-06-26T12:06:50;3.88;;;2.10;;
9563;SDS011;4820;50.870;4.702;2023-06-26T12:09:22;6.88;;;2.00;;
9563;SDS011;4820;50.870;4.702;2023-06-26T12:11:53;7.18;;;1.83;;
9563;SDS011;4820;50.870;4.702;2023-06-26T12:16:50;5.10;;;2.40;;
9563;SDS011;4820;50.870;4.702;2023-06-26T12:19:23;3.60;;;2.08;;
9563;SDS011;4820;50.870;4.702;2023-06-26T12:21:52;5.55;;;2.38;;
9563;SDS011;4820;50.870;4.702;2023-06-26T12:24:22;4.20;;;2.00;;
9563;SDS011;4820;50.870;4.702;2023-06-26T12:26:52;5.80;;;2.30;;
9563;SDS011;4820;50.870;4.702;2023-06-26T12:29:22;8.02;;;2.15;;
9563;SDS011;4820;50.870;4.702;2023-06-26T12:31:57;6.63;;;2.03;;
9563;SDS011;4820;50.870;4.702;2023-06-26T12:34:27;4.25;;;1.90;;
9563;SDS011;4820;50.870;4.702;2023-06-26T12:37:04;3.03;;;2.00;;
9563;SDS011;4820;50.870;4.702;2023-06-26T12:39:51;6.57;;;2.03;;
9563;SDS011;4820;50.870;4.702;2023-06-26T12:44:49;4.00;;;2.30;;
9563;SDS011;4820;50.870;4.702;2023-06-26T12:47:15;4.53;;;2.20;;
9563;SDS011;4820;50.870;4.702;2023-06-26T12:49:43;4.97;;;2.10;;
9563;SDS011;4820;50.870;4.702;2023-06-26T12:52:13;4.80;;;2.10;;
9563;SDS011;4820;50.870;4.702;2023-06-26T12:54:44;2.72;;;2.03;;
9563;SDS011;4820;50.870;4.702;2023-06-26T12:57:12;4.03;;;2.17;;
9563;SDS011;4820;50.870;4.702;2023-06-26T12:59:39;3.10;;;1.80;;
9563;SDS011;4820;50.870;4.702;2023-06-26T13:02:05;3.28;;;2.00;;
9563;SDS011;4820;50.870;4.702;2023-06-26T13:04:32;5.40;;;2.17;;
9563;SDS011;4820;50.870;4.702;2023-06-26T13:06:59;5.03;;;1.90;;
9563;SDS011;4820;50.870;4.702;2023-06-26T13:09:25;4.00;;;2.05;;
9563;SDS011;4820;50.870;4.702;2023-06-26T13:11:54;5.15;;;2.30;;
9563;SDS011;4820;50.870;4.702;2023-06-26T13:14:20;2.95;;;1.90;;
9563;SDS011;4820;50.870;4.702;2023-06-26T13:16:46;3.15;;;2.00;;
9563;SDS011;4820;50.870;4.702;2023-06-26T13:19:12;4.68;;;1.77;;
9563;SDS011;4820;50.870;4.702;2023-06-26T13:21:38;3.95;;;2.20;;
9563;SDS011;4820;50.870;4.702;2023-06-26T13:24:04;5.35;;;2.30;;
9563;SDS011;4820;50.870;4.702;2023-06-26T13:26:30;5.40;;;2.03;;
9563;SDS011;4820;50.870;4.702;2023-06-26T13:28:56;4.55;;;2.03;;
9563;SDS011;4820;50.870;4.702;2023-06-26T13:31:22;4.40;;;2.10;;
9563;SDS011;4820;50.870;4.702;2023-06-26T13:33:48;3.65;;;2.00;;
9563;SDS011;4820;50.870;4.702;2023-06-26T13:36:14;2.72;;;2.00;;
9563;SDS011;4820;50.870;4.702;2023-06-26T13:38:44;5.50;;;2.20;;
9563;SDS011;4820;50.870;4.702;2023-06-26T13:41:11;3.63;;;2.20;;
9563;SDS011;4820;50.870;4.702;2023-06-26T13:43:37;6.70;;;2.25;;
9563;SDS011;4820;50.870;4.702;2023-06-26T13:46:03;7.07;;;2.40;;
9563;SDS011;4820;50.870;4.702;2023-06-26T13:48:28;3.53;;;2.00;;
9563;SDS011;4820;50.870;4.702;2023-06-26T13:50:54;4.68;;;2.10;;
9563;SDS011;4820;50.870;4.702;2023-06-26T13:53:21;4.78;;;2.30;;
9563;SDS011;4820;50.870;4.702;2023-06-26T13:55:47;5.07;;;2.13;;
9563;SDS011;4820;50.870;4.702;2023-06-26T13:58:12;5.78;;;2.33;;
9563;SDS011;4820;50.870;4.702;2023-06-26T14:00:39;4.63;;;2.20;;
9563;SDS011;4820;50.870;4.702;2023-06-26T14:03:05;4.18;;;2.38;;
9563;SDS011;4820;50.870;4.702;2023-06-26T14:05:35;6.82;;;2.90;;
9563;SDS011;4820;50.870;4.702;2023-06-26T14:08:05;6.95;;;2.30;;
9563;SDS011;4820;50.870;4.702;2023-06-26T14:10:32;4.68;;;2.00;;
9563;SDS011;4820;50.870;4.702;2023-06-26T14:13:01;4.93;;;1.98;;
9563;SDS011;4820;50.870;4.702;2023-06-26T14:15:28;6.70;;;2.33;;
9563;SDS011;4820;50.870;4.702;2023-06-26T14:17:53;4.75;;;2.17;;
9563;SDS011;4820;50.870;4.702;2023-06-26T14:20:21;5.93;;;2.22;;
9563;SDS011;4820;50.870;4.702;2023-06-26T14:22:47;5.93;;;2.10;;
9563;SDS011;4820;50.870;4.702;2023-06-26T14:25:14;4.18;;;2.00;;
9563;SDS011;4820;50.870;4.702;2023-06-26T14:27:41;4.45;;;1.95;;
9563;SDS011;4820;50.870;4.702;2023-06-26T14:30:07;6.30;;;2.20;;
9563;SDS011;4820;50.870;4.702;2023-06-26T14:32:34;2.95;;;2.08;;
9563;SDS011;4820;50.870;4.702;2023-06-26T14:35:00;6.63;;;2.17;;
9563;SDS011;4820;50.870;4.702;2023-06-26T14:37:26;3.35;;;1.98;;
9563;SDS011;4820;50.870;4.702;2023-06-26T14:39:54;4.35;;;1.90;;
9563;SDS011;4820;50.870;4.702;2023-06-26T14:42:21;3.97;;;1.90;;
9563;SDS011;4820;50.870;4.702;2023-06-26T14:44:48;5.82;;;2.13;;
9563;SDS011;4820;50.870;4.702;2023-06-26T14:47:15;3.30;;;2.00;;
9563;SDS011;4820;50.870;4.702;2023-06-26T14:49:42;4.78;;;1.92;;
9563;SDS011;4820;50.870;4.702;2023-06-26T14:52:09;4.57;;;2.25;;
9563;SDS011;4820;50.870;4.702;2023-06-26T14:54:34;4.78;;;1.90;;
9563;SDS011;4820;50.870;4.702;2023-06-26T14:57:04;5.15;;;2.10;;
9563;SDS011;4820;50.870;4.702;2023-06-26T14:59:30;8.27;;;2.17;;
9563;SDS011;4820;50.870;4.702;2023-06-26T15:01:56;3.30;;;1.83;;
9563;SDS011;4820;50.870;4.702;2023-06-26T15:04:22;4.35;;;2.25;;
9563;SDS011;4820;50.870;4.702;2023-06-26T15:06:47;6.38;;;2.25;;
9563;SDS011;4820;50.870;4.702;2023-06-26T15:09:16;4.00;;;2.03;;
9563;SDS011;4820;50.870;4.702;2023-06-26T15:11:42;5.07;;;2.35;;
9563;SDS011;4820;50.870;4.702;2023-06-26T15:14:08;4.55;;;2.10;;
9563;SDS011;4820;50.870;4.702;2023-06-26T15:16:34;3.53;;;1.75;;
9563;SDS011;4820;50.870;4.702;2023-06-26T15:18:59;3.60;;;2.03;;
9563;SDS011;4820;50.870;4.702;2023-06-26T15:21:25;4.47;;;1.85;;
9563;SDS011;4820;50.870;4.702;2023-06-26T15:23:52;5.95;;;2.25;;
9563;SDS011;4820;50.870;4.702;2023-06-26T15:26:18;5.35;;;2.00;;
9563;SDS011;4820;50.870;4.702;2023-06-26T15:28:43;4.75;;;2.20;;
9563;SDS011;4820;50.870;4.702;2023-06-26T15:31:10;4.80;;;2.10;;
9563;SDS011;4820;50.870;4.702;2023-06-26T15:33:36;5.47;;;2.15;;
9563;SDS011;4820;50.870;4.702;2023-06-26T15:36:01;5.05;;;2.13;;
9563;SDS011;4820;50.870;4.702;2023-06-26T15:38:28;4.32;;;1.80;;
9563;SDS011;4820;50.870;4.702;2023-06-26T15:40:54;5.13;;;2.10;;
9563;SDS011;4820;50.870;4.702;2023-06-26T15:43:21;4.05;;;2.10;;
9563;SDS011;4820;50.870;4.702;2023-06-26T15:45:46;4.57;;;2.05;;